Columbia@I.B.

Start Stop
DateFlow
CFS
Gauge
Feet
DateFlow
CFS
Gauge
Feet
05/28/2020 05:00186000106.72
05/28/2020 04:00187000106.68
05/28/2020 03:00184000106.68
05/28/2020 02:00182000106.66
05/28/2020 01:00185000106.65
05/28/2020 00:00 106.63
05/27/2020 23:00185000106.68
05/27/2020 22:00188000106.68
05/27/2020 21:00186000106.65
05/27/2020 20:00 106.67
05/27/2020 19:00186000106.68
05/27/2020 18:00185000106.68
05/27/2020 17:00184000106.7
05/27/2020 16:00185000106.68
05/27/2020 15:00186000106.72
05/27/2020 14:00184000106.69
05/27/2020 13:00187000106.7
05/27/2020 12:00184000106.72
05/27/2020 11:00185000106.7
05/27/2020 10:00185000106.72
05/27/2020 09:00187000106.74
05/27/2020 08:00187000106.77
05/27/2020 07:00186000106.73
05/27/2020 06:00186000106.68
05/27/2020 05:00183000106.53
05/27/2020 04:00186000106.7
05/27/2020 03:00185000106.68
05/27/2020 01:00186000106.61
05/27/2020 00:00185000106.59
05/26/2020 23:00186000106.54
05/26/2020 22:00181000106.56
05/26/2020 21:00184000106.55
05/26/2020 20:00184000106.6
05/26/2020 19:00183000106.65
05/26/2020 18:00184000106.68
05/26/2020 17:00184000106.73
05/26/2020 16:00186000106.76
05/26/2020 15:00188000106.77
05/26/2020 13:00189000106.77
05/26/2020 12:00186000106.75
05/26/2020 11:00 112.33
05/26/2020 10:00187000106.67
05/26/2020 09:00185000106.65
05/26/2020 08:00186000106.57
05/26/2020 07:00184000106.44
05/26/2020 06:00181000106.34
05/26/2020 05:00180000106.12
05/26/2020 04:00173000105.61
05/26/2020 03:00174000105.78
05/26/2020 02:00176000105.77
05/26/2020 01:00174000105.78
05/26/2020 00:00174000105.71
05/25/2020 23:00173000105.65
05/25/2020 22:00175000105.68
05/25/2020 21:00173000105.66
05/25/2020 20:00173000105.72
05/25/2020 19:00172000105.94
05/25/2020 18:00181000106.68
05/25/2020 17:00185000106.83
05/25/2020 16:00187000106.84
05/25/2020 15:00 106.89
05/25/2020 14:00187000106.9
05/25/2020 13:00188000106.91
05/25/2020 12:00189000106.9
05/25/2020 11:00187000106.87
05/25/2020 10:00188000106.8
05/25/2020 09:00184000106.68
05/25/2020 08:00182000106.54
05/25/2020 07:00188000106.9
05/25/2020 06:00188000106.9
05/25/2020 05:00190000106.87
05/25/2020 04:00185000106.67
05/25/2020 03:00183000106.21
05/25/2020 01:00178000106
05/25/2020 00:00177000105.95
05/24/2020 23:00 105.96
05/24/2020 22:00177000105.96
05/24/2020 21:00178000105.97
05/24/2020 20:00178000105.98
05/24/2020 19:00180000105.97
05/24/2020 18:00176000105.94
05/24/2020 17:00176000105.95
05/24/2020 16:00177000105.93
05/24/2020 15:00177000105.93
05/24/2020 14:00175000105.9
05/24/2020 13:00175000105.87
05/24/2020 12:00176000105.84
05/24/2020 11:00175000105.75
05/24/2020 10:00173000105.54
05/24/2020 09:00167000104.96
05/24/2020 08:00163000104.88
05/24/2020 07:00173000105.78
05/24/2020 06:00175000 
05/24/2020 05:00173000105.78
05/24/2020 04:00175000105.81
05/24/2020 03:00176000105.81
05/24/2020 01:00176000106.02
05/24/2020 00:00180000106.47
05/23/2020 23:00187000106.9
05/23/2020 22:00190000106.91
05/23/2020 21:00190000106.95
05/23/2020 20:00189000106.94
05/23/2020 19:00190000106.94
05/23/2020 18:00187000106.86
05/23/2020 17:00187000106.78
05/23/2020 16:00182000106.2
05/23/2020 15:00179000106.3
05/23/2020 14:00182000106.35
05/23/2020 13:00181000106.25
05/23/2020 12:00179000106.03
05/23/2020 11:00173000105.87
05/23/2020 10:00176000105.73
05/23/2020 09:00174000105.76
05/23/2020 08:00176000106.01
05/23/2020 07:00176000106.02
05/23/2020 06:00179000105.97
05/23/2020 05:00176000105.9
05/23/2020 04:00173000105.7
05/23/2020 03:00179000106.14
05/23/2020 01:00 106.11
05/23/2020 00:00179000106.1
05/22/2020 23:00177000106.09
05/22/2020 22:00177000106.06
05/22/2020 21:00180000106.08
05/22/2020 20:00179000106.1
05/22/2020 19:00177000106.11
05/22/2020 18:00178000106.12
05/22/2020 17:00179000106.11
05/22/2020 16:00179000106.13
05/22/2020 15:00180000106.16
05/22/2020 14:00180000106.15
05/22/2020 13:00181000104.83
05/22/2020 12:00180000 
05/22/2020 11:00179000 
05/22/2020 10:00178000104.83
05/22/2020 09:00176000104.82
05/22/2020 08:00172000 
05/22/2020 07:00167000 
05/22/2020 06:00168000 
05/22/2020 05:00168000 
05/22/2020 04:00169000 
05/22/2020 03:00168000 
05/22/2020 01:00168000 
05/22/2020 00:00167000 
05/21/2020 23:00165000 
05/21/2020 22:00166000 
05/21/2020 21:00166000 
05/21/2020 20:00164000 
05/21/2020 19:00167000104.82
05/21/2020 18:00167000104.81
05/21/2020 17:00165000 
05/21/2020 16:00165000 
05/21/2020 15:00166000 
05/21/2020 14:00163000104.81
05/21/2020 13:00165000104.79
05/21/2020 12:00164000104.79
05/21/2020 11:00165000104.73
05/21/2020 10:00163000104.55
05/21/2020 09:00159000104.08
05/21/2020 08:00152000103.61
05/21/2020 07:00152000103.82
05/21/2020 06:00156000104.26
05/21/2020 05:00161000104.52
05/21/2020 04:00159000104.48
05/21/2020 03:00160000104.44
05/21/2020 01:00158000104.41
05/21/2020 00:00159000104.4
05/20/2020 23:00160000104.49
05/20/2020 22:00162000104.63
05/20/2020 21:00165000104.66
05/20/2020 20:00164000104.65
05/20/2020 19:00163000104.52
05/20/2020 18:00157000104.18
05/20/2020 17:00152000103.71
05/20/2020 16:00156000104.31
05/20/2020 15:00 104.62
05/20/2020 14:00 104.51
05/20/2020 13:00 104.16
05/20/2020 12:00 103.85
05/20/2020 11:00 103.81
05/20/2020 10:00 103.89
05/20/2020 09:00 103.94
05/20/2020 08:00 103.83
05/20/2020 07:00 103.65
05/20/2020 06:00 103.54
05/20/2020 05:00 102.99
05/20/2020 04:00 103.36
05/20/2020 03:00 103.57
05/20/2020 01:00 103.71
05/20/2020 00:00 103.89
05/19/2020 23:00 104.03
05/19/2020 22:00 104
05/19/2020 21:0084000103.91
05/19/2020 20:0091700103.63
05/19/2020 19:0096500103.49
05/19/2020 18:00 103.5
05/19/2020 17:00107000103.5
05/19/2020 16:00114000103.48
05/19/2020 15:00128000103.47
05/19/2020 14:00134000103.47
05/19/2020 13:00142000103.44
05/19/2020 12:00145000103.4
05/19/2020 11:00145000103.22
05/19/2020 10:00144000103.13
05/19/2020 09:00145000103.24
05/19/2020 08:00145000103.47
05/19/2020 07:00144000103.53
05/19/2020 06:00142000103.51
05/19/2020 05:00136000103.48
05/19/2020 04:00130000103.47
05/19/2020 03:00129000103.45
05/19/2020 01:00126000103.41
05/19/2020 00:00125000103.37
05/18/2020 23:00125000103.24
05/18/2020 22:00123000103.16
05/18/2020 21:00122000103.14
05/18/2020 20:00123000103.14
05/18/2020 19:00127000103.07
05/18/2020 18:00128000103.02
05/18/2020 17:00130000102.94
05/18/2020 16:00133000102.75
05/18/2020 15:00134000102.72
05/18/2020 14:00135000102.73
05/18/2020 13:00139000102.73
05/18/2020 12:00140000102.74
05/18/2020 11:00142000102.73
05/18/2020 10:00141000102.74
05/18/2020 09:00140000102.76
05/18/2020 08:00140000102.74
05/18/2020 07:00141000102.74
05/18/2020 06:00139000102.72
05/18/2020 05:00138000102.68
05/18/2020 04:00140000102.65
05/18/2020 03:00139000102.65
05/18/2020 01:00138000102.6
05/18/2020 00:00139000102.57
05/17/2020 23:00140000102.52
05/17/2020 22:00139000102.51
05/17/2020 21:00138000102.48
05/17/2020 20:00 102.47
05/17/2020 19:00138000102.45
05/17/2020 18:00137000102.45
05/17/2020 17:00137000102.41
05/17/2020 16:00138000102.4
05/17/2020 15:00138000102.41
05/17/2020 14:00137000102.39
05/17/2020 13:00137000102.37
05/17/2020 12:00135000102.33
05/17/2020 11:00136000102.3
05/17/2020 10:00137000102.3
05/17/2020 09:00134000102.11
05/17/2020 08:00134000102.33
05/17/2020 07:00136000 
05/17/2020 06:00137000102.33
05/17/2020 05:00137000102.34
05/17/2020 04:00136000102.32
05/17/2020 03:00 102.29
05/17/2020 01:00136000102.26
05/17/2020 00:00135000102.22
05/16/2020 23:00 102.25
05/16/2020 22:00135000102.2
05/16/2020 21:00134000102.22
05/16/2020 20:00135000102.23
05/16/2020 19:00135000102.22
05/16/2020 18:00134000102.22
05/16/2020 17:00135000102.2
05/16/2020 16:00 102.19
05/16/2020 15:00 102.22
05/16/2020 14:00135000102.24
05/16/2020 13:00136000102.28
05/16/2020 12:00136000102.37
05/16/2020 11:00138000102.6
05/16/2020 10:00140000102.64
05/16/2020 09:00139000102.63
05/16/2020 08:00140000102.68
05/16/2020 07:00139000102.67
05/16/2020 06:00139000102.72
05/16/2020 05:00140000102.74
05/16/2020 04:00140000102.73
05/16/2020 03:00139000102.72
05/16/2020 01:00139000102.68
05/16/2020 00:00140000102.66
05/15/2020 23:00140000102.66
05/15/2020 22:00138000102.67
05/15/2020 21:00141000102.66
05/15/2020 20:00140000102.69
05/15/2020 19:00140000102.66
05/15/2020 18:00139000102.6
05/15/2020 17:00139000102.4
05/15/2020 16:00135000102.22
05/15/2020 15:00134000101.93
05/15/2020 14:00132000101.84
05/15/2020 13:00132000101.75
05/15/2020 12:00131000101.73
05/15/2020 11:00132000101.72
05/15/2020 10:00127000101.62
05/15/2020 09:00128000101.37
05/15/2020 08:00126000101.33
05/15/2020 07:00126000101.28
05/15/2020 06:00125000101.22
05/15/2020 05:00124000101.22
05/15/2020 04:00126000101.23
05/15/2020 03:00125000101.24
05/15/2020 01:00127000101.24
05/15/2020 00:00126000101.3
05/14/2020 23:00 101.29
05/14/2020 22:00 101.31
05/14/2020 21:00126000101.3
05/14/2020 20:00127000101.32
05/14/2020 19:00 101.34
05/14/2020 18:00 101.32
05/14/2020 17:00127000101.33
05/14/2020 16:00126000101.36
05/14/2020 15:00127000101.42
05/14/2020 14:00127000101.37
05/14/2020 13:00128000101.41
05/14/2020 12:00127000101.4
05/14/2020 11:00128000101.41
05/14/2020 10:00128000101.42
05/14/2020 09:00125000101.35
05/14/2020 08:00124000101.13
05/14/2020 07:00128000101.46
05/14/2020 06:00129000101.47
05/14/2020 05:00127000101.46
05/14/2020 04:00 101.43
05/14/2020 03:00127000101.41
05/14/2020 01:00128000101.32
05/14/2020 00:00128000101.3
05/13/2020 23:00126000101.29
05/13/2020 22:00127000101.3
05/13/2020 21:00126000101.31
05/13/2020 20:00 101.31
05/13/2020 19:00 101.29
05/13/2020 18:00 101.28
05/13/2020 17:00 101.24
05/13/2020 16:00 101.27
05/13/2020 15:00 101.23
05/13/2020 14:00 101.21
05/13/2020 13:00126000101.18
05/13/2020 12:00124000101.18
05/13/2020 11:00124000101.15
05/13/2020 10:00125000101.14
05/13/2020 09:00125000101.11
05/13/2020 08:00126000101.14
05/13/2020 07:00125000101.15
05/13/2020 06:00125000101.23
05/13/2020 05:00126000101.25
05/13/2020 04:00125000101.22
05/13/2020 03:00126000101.14
05/13/2020 01:00124000100.99
05/13/2020 00:00123000100.93
05/12/2020 23:00121000100.93
05/12/2020 22:00123000100.94
05/12/2020 21:00123000100.98
05/12/2020 20:00125000101.12
05/12/2020 19:00127000101.47
05/12/2020 18:00132000102
05/12/2020 17:00137000102.06
05/12/2020 16:00128000101.53
05/12/2020 15:00129000101.54
05/12/2020 14:00129000101.55
05/12/2020 13:00127000101.46
05/12/2020 12:00126000101.26
05/12/2020 11:00125000101.3
05/12/2020 10:00126000101.23
05/12/2020 09:00122000100.9
05/12/2020 08:00121000100.88
05/12/2020 07:00122000100.89
05/12/2020 06:00 100.97
05/12/2020 05:00 100.94
05/12/2020 04:00 100.93
05/12/2020 03:00122000100.92
05/12/2020 01:00124000100.98
05/12/2020 00:00 101.06
05/11/2020 23:00 101.05
05/11/2020 22:00 101.04
05/11/2020 21:00124000101.02
05/11/2020 20:00122000101.05
05/11/2020 19:00124000101.05
05/11/2020 18:00 101.09
05/11/2020 17:00124000101.13
05/11/2020 16:00123000101.18
05/11/2020 15:00124000101.26
05/11/2020 14:00128000101.55
05/11/2020 13:00129000101.6
05/11/2020 12:00130000101.61
05/11/2020 11:00131000101.62
05/11/2020 10:00129000101.6
05/11/2020 09:00128000101.58
05/11/2020 08:00131000101.59
05/11/2020 07:00129000101.61
05/11/2020 06:00128000101.6
05/11/2020 05:00129000101.61
05/11/2020 04:00129000101.59
05/11/2020 03:00128000101.56
05/11/2020 01:00127000101.48
05/11/2020 00:00126000101.43
05/10/2020 23:00127000101.4
05/10/2020 22:00127000101.4
05/10/2020 21:00128000101.37
05/10/2020 20:00126000101.33
05/10/2020 19:00 101.32
05/10/2020 18:00126000101.31
05/10/2020 17:00128000101.31
05/10/2020 16:00126000101.28
05/10/2020 15:00126000101.14
05/10/2020 14:00124000101.1
05/10/2020 13:00125000101.44
05/10/2020 12:00130000101.55
05/10/2020 11:00130000101.36
05/10/2020 10:00122000100.76
05/10/2020 09:00113000100.12
05/10/2020 08:00121000100.81
05/10/2020 06:00121000100.81
05/10/2020 05:00120000100.78
05/10/2020 04:00120000100.76
05/10/2020 03:00121000100.73
05/10/2020 01:00120000100.65
05/10/2020 00:00119000100.62
05/09/2020 23:00119000100.55
05/09/2020 22:00120000100.55
05/09/2020 21:00118000100.52
05/09/2020 20:00119000100.51
05/09/2020 19:00120000100.5
05/09/2020 18:00117000100.56
05/09/2020 17:00120000105.87
05/09/2020 16:00 100.67
05/09/2020 15:00120000100.74
05/09/2020 14:00122000100.84
05/09/2020 13:00 100.92
05/09/2020 12:00 100.95
05/09/2020 11:00122000100.87
05/09/2020 10:00121000100.48
05/09/2020 09:00117000100.42
05/09/2020 08:00125000101.16
05/09/2020 07:00125000101.17
05/09/2020 06:00126000101.18
05/09/2020 05:00125000101.17
05/09/2020 04:00 101.14
05/09/2020 03:00125000101.14
05/09/2020 01:00124000101.08
05/09/2020 00:00 101.05
05/08/2020 23:00 100.98
05/08/2020 22:00124000100.95
05/08/2020 21:00122000100.93
05/08/2020 20:00123000100.92
05/08/2020 19:00 100.93
05/08/2020 18:00123000100.92
05/08/2020 17:00122000100.91
05/08/2020 16:00123000100.9
05/08/2020 15:00 100.88
05/08/2020 14:00123000 
05/08/2020 13:00122000100.88
05/08/2020 12:00122000100.85
05/08/2020 11:00121000100.82
05/08/2020 10:00123000100.84
05/08/2020 09:00121000100.83
05/08/2020 07:00 100.83
05/08/2020 06:00121000100.88
05/08/2020 05:00123000100.85
05/08/2020 04:00121000100.88
05/08/2020 03:00124000100.89
05/08/2020 01:00123000100.89
05/08/2020 00:00123000100.88
05/07/2020 23:00122000100.84
05/07/2020 22:00122000100.79
05/07/2020 21:00120000100.71
05/07/2020 20:00120000100.63
05/07/2020 19:00118000100.56
05/07/2020 18:00120000100.6
05/07/2020 17:00119000100.59
05/07/2020 16:00119000100.6
05/07/2020 15:00120000100.57
05/07/2020 14:00121000100.55
05/07/2020 13:00120000100.45
05/07/2020 12:00118000100.42
05/07/2020 11:00 100.43
05/07/2020 10:00 100.44
05/07/2020 09:00118000100.42
05/07/2020 08:00119000100.44
05/07/2020 07:00 100.49
05/07/2020 06:00 100.52
05/07/2020 05:00119000100.53
05/07/2020 04:00120000100.53
05/07/2020 03:00119000100.58
05/07/2020 01:00120000100.59
05/07/2020 00:00 100.6
05/06/2020 23:00120000100.59
05/06/2020 22:00119000100.59
05/06/2020 21:00120000100.57
05/06/2020 20:00119000105.68
05/06/2020 19:00120000100.59
05/06/2020 18:00119000100.59
05/06/2020 17:00119000100.62
05/06/2020 16:00120000100.62
05/06/2020 15:00120000100.59
05/06/2020 14:00121000100.56
05/06/2020 13:00119000100.52
05/06/2020 12:00119000100.4
05/06/2020 11:00118000100.35
05/06/2020 10:00117000100.31
05/06/2020 09:00 100.3
05/06/2020 08:00117000100.27
05/06/2020 07:00116000100.29
05/06/2020 06:00 100.28
05/06/2020 05:00116000100.26
05/06/2020 04:00117000100.27
05/06/2020 03:00116000100.26
05/06/2020 01:00 100.23
05/06/2020 00:00116000100.22
05/05/2020 23:00114000100.19
05/05/2020 22:00118000100.22
05/05/2020 21:00115000100.17
05/05/2020 20:00116000100.19
05/05/2020 19:00 100.17
05/05/2020 18:00116000100.14
05/05/2020 17:0011400099.89
05/05/2020 16:0011200099.72
05/05/2020 15:0010900099.43
05/05/2020 14:0010800099.35
05/05/2020 13:0010500099.33
05/05/2020 12:00113000100.1
05/05/2020 11:00118000100.43
05/05/2020 10:00117000100.38
05/05/2020 09:00117000100.41
05/05/2020 08:00119000100.43
05/05/2020 07:00117000100.4
05/05/2020 06:00119000100.41
05/05/2020 05:00117000100.43
05/05/2020 04:00118000100.44
05/05/2020 03:00119000100.42
05/05/2020 02:00117000100.44
05/05/2020 01:00118000100.44
05/05/2020 00:00120000100.45
05/04/2020 23:00119000100.43
05/04/2020 22:00117000100.41
05/04/2020 21:00116000100.35
05/04/2020 20:00117000100.14
05/04/2020 19:0011300099.44
05/04/2020 18:0010900099.39
05/04/2020 17:0010900099.37
05/04/2020 16:0010700099.33
05/04/2020 15:0010800099.23
05/04/2020 14:0010500098.82
05/04/2020 13:0010200098.73
05/04/2020 12:0010800099.75
05/04/2020 11:00114000100.15
05/04/2020 10:00115000100.12
05/04/2020 09:00116000 
05/04/2020 08:00115000100.12
05/04/2020 07:00115000100.11
05/04/2020 06:00116000100.14
05/04/2020 05:00114000100.15
05/04/2020 04:00116000100.12
05/04/2020 03:00114000100.05
05/04/2020 01:00 100.11
05/04/2020 00:00114000100.19
05/03/2020 23:00116000100.13
05/03/2020 22:00114000100.02
05/03/2020 21:0011300099.76
05/03/2020 20:0010600098.97
05/03/2020 19:0010300098.83
05/03/2020 18:009940098.46
05/03/2020 17:009870098.4
05/03/2020 16:009940098.59
05/03/2020 15:0010300099.08
05/03/2020 14:0010500099.1
05/03/2020 13:0010600099.13
05/03/2020 12:00 99.16
05/03/2020 11:00 99.18
05/03/2020 10:0010600099.16
05/03/2020 09:0010700099.16
05/03/2020 08:0010600099.19
05/03/2020 07:0010700099.3
05/03/2020 06:0010900099.7
05/03/2020 05:0011100099.76
05/03/2020 04:0011200099.8
05/03/2020 03:0011300099.96
05/03/2020 01:00113000100.03
05/03/2020 00:00114000100.01
05/02/2020 23:00113000100
05/02/2020 22:00114000100.03
05/02/2020 21:00114000100.02
05/02/2020 20:0011300099.95
05/02/2020 19:0011400099.94
05/02/2020 18:0011300099.92
05/02/2020 17:0011300099.91
05/02/2020 16:0011400099.87
05/02/2020 15:0011300099.84
05/02/2020 14:0011300099.74
05/02/2020 13:0011100099.7
05/02/2020 12:0011000099.68
05/02/2020 11:0011100099.62
05/02/2020 10:0011100099.62
05/02/2020 09:0010900099.61
05/02/2020 08:0011000099.59
05/02/2020 07:00 99.55
05/02/2020 06:0011000099.46
05/02/2020 05:0010800099.22
05/02/2020 04:0010700099.06
05/02/2020 03:0010400098.78
05/02/2020 01:0010100098.65
05/02/2020 00:009950098.32
05/01/2020 23:0010000098.69
05/01/2020 22:0010800099.62
05/01/2020 21:0011100099.62
05/01/2020 20:0011200099.6
05/01/2020 19:0011000099.55
05/01/2020 18:0010900099.46
05/01/2020 17:0010700099.1
05/01/2020 16:0010500099.17
05/01/2020 15:0010900099.52
05/01/2020 14:0010900099.48
05/01/2020 13:0010700099.27
05/01/2020 12:0010600099.27
05/01/2020 11:0010800099.26
05/01/2020 10:0010800099.24
05/01/2020 09:0010700099.22
05/01/2020 08:0010700099.17
05/01/2020 07:0010500099.09
05/01/2020 06:0010500098.94
05/01/2020 05:0010000098.4
05/01/2020 04:009920098.33
05/01/2020 03:009750098.22
05/01/2020 01:008880097.26
05/01/2020 00:009210097.62
04/30/2020 23:009290097.6
04/30/2020 22:009250097.59
04/30/2020 21:009220097.64
04/30/2020 20:009390098.01
04/30/2020 19:009520098
04/30/2020 18:009560098.05
04/30/2020 17:009550098.1
04/30/2020 16:009640098.11
04/30/2020 15:009620098.15
04/30/2020 14:009530098.19
04/30/2020 13:009730098.13
04/30/2020 12:009620098.05
04/30/2020 11:009580097.91
04/30/2020 10:009300097.48
04/30/2020 09:008780096.77
04/30/2020 08:008380096.42
04/30/2020 07:008170096.18
04/30/2020 06:007720095.52
04/30/2020 05:007730095.65
04/30/2020 04:007940096.03
04/30/2020 03:008570096.79
04/30/2020 01:009030097.43
04/30/2020 00:009200097.65
04/29/2020 23:009560098.19
04/29/2020 22:009700098.2
04/29/2020 21:009670098.21
04/29/2020 20:009660098.2
04/29/2020 18:00 103.12
04/29/2020 17:009680098.21
04/29/2020 16:009750098.26
04/29/2020 15:009830098.25
04/29/2020 14:009770098.26
04/29/2020 13:009770098.25
04/29/2020 12:009780098.26
04/29/2020 11:009770098.26
04/29/2020 10:009840098.3
04/29/2020 09:009860098.36
04/29/2020 08:009990098.68
04/29/2020 07:009970098.26
04/29/2020 06:009260096.89
04/29/2020 05:007550095.41
04/29/2020 04:007700095.72
04/29/2020 03:008290096.35
04/29/2020 01:008310096.35
04/29/2020 00:008330096.4
04/28/2020 23:008350096.49
04/28/2020 22:008540096.76
04/28/2020 21:008960097.22
04/28/2020 20:008880097.22
04/28/2020 19:008880097.26
04/28/2020 18:009130097.39
04/28/2020 17:009300097.79
04/28/2020 16:009380097.65
04/28/2020 15:009170097.52
04/28/2020 14:009250097.69
04/28/2020 13:009490098.14
04/28/2020 12:009830098.31
04/28/2020 11:0010000098.58
04/28/2020 10:009910097.91
04/28/2020 09:009020097.2
04/28/2020 08:008910097.17
04/28/2020 07:008810096.97
04/28/2020 06:008490096.43

Start Stop